This is the latest recevied weather packets stored in our database for station/object HI3LT-13. If no packets are shown the sender has not sent any weather packets the latest 10 day(s).
| Time | Temp. | Humidity | Pressure | Rain* | Wind** | Luminosity | Snow |
|---|---|---|---|---|---|---|---|
| 1788115485 | 34.44° C | 57% | 1014 hPa | 0 mm | - | - | - |
| 1788114884 | 36.11° C | 57% | 1014 hPa | 0 mm | - | - | - |
| 1788114283 | 35.56° C | 60% | 1014 hPa | 0 mm | - | - | - |
| 1788113682 | 35.56° C | 60% | 1014 hPa | 0 mm | - | - | - |
| 1788113082 | 36.11° C | 63% | 1014 hPa | 0 mm | - | - | - |
| 1788112481 | 34.44° C | 63% | 1014 hPa | 0 mm | - | - | - |
| 1788111880 | 33.89° C | 64% | 1014 hPa | 0 mm | - | - | - |
| 1788111279 | 28.89° C | 64% | 1014 hPa | 0 mm | - | - | - |
| 1788110678 | 35.56° C | 62% | 1015 hPa | 0 mm | - | - | - |
| 1788110078 | 33.33° C | 62% | 1015 hPa | 0 mm | - | - | - |
| 1788109477 | 34.44° C | 62% | 1015 hPa | 0 mm | - | - | - |
| 1788108876 | 34.44° C | 62% | 1015 hPa | 0 mm | - | - | - |
| 1788108276 | 29.44° C | 62% | 1015 hPa | 0 mm | - | - | - |
| 1788107675 | 34.44° C | 72% | 1015 hPa | 0 mm | - | - | - |
| 1788107074 | 31.67° C | 67% | 1015 hPa | 0 mm | - | - | - |
| 1788106473 | 35° C | 74% | 1015 hPa | 0 mm | - | - | - |
| 1788105872 | 32.22° C | 69% | 1015 hPa | 0 mm | - | - | - |
| 1788105271 | 32.78° C | 69% | 1015 hPa | 0 mm | - | - | - |
| 1788104671 | 32.78° C | 69% | 1016 hPa | 0 mm | - | - | - |
| 1788104070 | 32.78° C | 69% | 1016 hPa | 0 mm | - | - | - |
| 1788103469 | 32.22° C | 67% | 1016 hPa | 0 mm | - | - | - |
| 1788102868 | 33.89° C | 74% | 1016 hPa | 1.02 mm | - | - | - |
| 1788102268 | 32.22° C | 72% | 1016 hPa | 0 mm | - | - | - |
| 1788101667 | 32.78° C | 72% | 1016 hPa | 0.51 mm | - | - | - |
| 1788101066 | 33.89° C | 74% | 1016 hPa | 0 mm | - | - | - |
* Rain latest hour (hover to see other rain measurements)
** Current wind speed in m/s (hover to see current wind gust speed)